createdAt,value
2023-04-22T00:00:36.698Z,99254.99
2023-04-22T00:03:05.276Z,99255.60
2023-04-22T00:05:33.981Z,99253.00
2023-04-22T00:08:03.388Z,99251.49
2023-04-22T00:10:31.181Z,99252.91
2023-04-22T00:12:59.027Z,99253.98
2023-04-22T00:15:27.192Z,99254.54
2023-04-22T00:17:55.463Z,99250.96
2023-04-22T00:20:23.386Z,99255.16
2023-04-22T00:22:51.171Z,99253.19
2023-04-22T00:25:19.150Z,99250.11
2023-04-22T00:27:47.023Z,99252.46
2023-04-22T00:30:14.997Z,99250.25
2023-04-22T00:32:42.963Z,99254.19
2023-04-22T00:35:10.960Z,99254.80
2023-04-22T00:37:39.092Z,99259.10
2023-04-22T00:40:07.575Z,99256.90
2023-04-22T00:42:36.649Z,99256.95
2023-04-22T00:45:04.904Z,99255.02
2023-04-22T00:47:32.921Z,99253.25
2023-04-22T00:50:00.721Z,99254.98
2023-04-22T00:52:28.696Z,99256.35
2023-04-22T00:54:56.426Z,99258.70
2023-04-22T00:57:24.148Z,99260.77
2023-04-22T00:59:52.001Z,99257.90
2023-04-22T01:02:20.221Z,99259.75
2023-04-22T01:04:48.284Z,99256.36
2023-04-22T01:07:16.149Z,99255.59
2023-04-22T01:09:44.038Z,99256.38
2023-04-22T01:12:11.902Z,99256.12
2023-04-22T01:14:39.977Z,99265.53
2023-04-22T01:17:10.193Z,99266.15
2023-04-22T01:19:38.641Z,99265.42
2023-04-22T01:22:07.951Z,99259.84
2023-04-22T01:24:35.700Z,99256.59
2023-04-22T01:27:03.458Z,99257.09
2023-04-22T01:29:33.544Z,99255.73
2023-04-22T01:32:02.970Z,99259.27
2023-04-22T01:34:31.220Z,99252.91
2023-04-22T01:36:59.187Z,99255.19
2023-04-22T01:39:27.023Z,99260.10
2023-04-22T01:41:55.750Z,99261.45
2023-04-22T01:44:23.526Z,99259.17
2023-04-22T01:46:51.284Z,99261.17
2023-04-22T01:49:19.076Z,99263.55
2023-04-22T01:51:46.837Z,99263.16
2023-04-22T01:54:16.103Z,99263.48
2023-04-22T01:56:49.148Z,99270.27
2023-04-22T01:59:16.859Z,99273.43
2023-04-22T02:01:44.685Z,99273.68
2023-04-22T02:04:12.637Z,99275.42
2023-04-22T02:06:40.734Z,99276.05
2023-04-22T02:09:08.720Z,99276.86
2023-04-22T02:11:36.640Z,99276.92
2023-04-22T02:14:04.460Z,99279.17
2023-04-22T02:16:32.370Z,99274.90
2023-04-22T02:19:00.472Z,99273.77
2023-04-22T02:21:28.994Z,99271.92
2023-04-22T02:23:56.862Z,99276.06
2023-04-22T02:26:26.118Z,99277.26
2023-04-22T02:28:53.981Z,99273.43
2023-04-22T02:31:21.736Z,99273.58
2023-04-22T02:33:51.456Z,99275.42
2023-04-22T02:36:19.442Z,99277.07
2023-04-22T02:38:47.360Z,99273.59
2023-04-22T02:41:16.118Z,99270.76
2023-04-22T02:43:46.324Z,99272.91
2023-04-22T02:46:16.262Z,99270.23
2023-04-22T02:48:44.130Z,99270.48
2023-04-22T02:51:12.099Z,99269.73
2023-04-22T02:53:39.854Z,99269.30
2023-04-22T02:56:08.723Z,99270.95
2023-04-22T02:58:42.316Z,99273.14
2023-04-22T03:01:13.024Z,99277.23
2023-04-22T03:03:41.050Z,99279.58
2023-04-22T03:06:10.376Z,99282.90
2023-04-22T03:08:38.143Z,99288.77
2023-04-22T03:11:06.098Z,99288.05
2023-04-22T03:13:34.585Z,99289.74
2023-04-22T03:16:02.525Z,99291.80
2023-04-22T03:18:31.945Z,99289.94
2023-04-22T03:21:00.951Z,99292.91
2023-04-22T03:23:29.046Z,99296.05
2023-04-22T03:25:56.933Z,99301.69
2023-04-22T03:28:24.806Z,99303.57
2023-04-22T03:30:52.666Z,99306.36
2023-04-22T03:33:20.788Z,99308.86
2023-04-22T03:35:56.010Z,99313.70
2023-04-22T03:38:23.704Z,99309.98
2023-04-22T03:40:52.057Z,99311.64
2023-04-22T03:43:36.917Z,99317.50
2023-04-22T03:46:09.497Z,99316.78
2023-04-22T03:48:41.260Z,99319.76
2023-04-22T03:51:13.614Z,99318.54
2023-04-22T03:53:42.036Z,99319.88
2023-04-22T03:56:10.960Z,99325.19
2023-04-22T03:58:41.399Z,99327.54
2023-04-22T04:01:09.317Z,99329.35
2023-04-22T04:03:37.682Z,99337.34
2023-04-22T04:06:05.979Z,99342.23
2023-04-22T04:08:34.170Z,99342.17
2023-04-22T04:11:02.097Z,99348.58
2023-04-22T04:13:32.466Z,99346.24
2023-04-22T04:16:19.349Z,99345.71
2023-04-22T04:18:52.040Z,99351.05
2023-04-22T04:21:21.488Z,99347.99
2023-04-22T04:23:51.572Z,99348.52
2023-04-22T04:26:21.254Z,99351.84
2023-04-22T04:28:52.419Z,99350.77
2023-04-22T04:31:20.404Z,99355.10
2023-04-22T04:33:48.570Z,99360.08
2023-04-22T04:36:16.691Z,99361.61
2023-04-22T04:38:45.421Z,99361.78
2023-04-22T04:41:14.590Z,99362.08
2023-04-22T04:43:46.383Z,99362.77
2023-04-22T04:46:25.410Z,99367.59
2023-04-22T04:48:54.131Z,99370.11
2023-04-22T04:51:22.989Z,99377.96
2023-04-22T04:53:53.740Z,99376.00
2023-04-22T04:56:21.876Z,99375.12
2023-04-22T04:58:50.163Z,99376.48
2023-04-22T05:01:20.753Z,99378.70
2023-04-22T05:03:48.887Z,99379.31
2023-04-22T05:06:18.224Z,99379.36
2023-04-22T05:08:53.251Z,99378.88
2023-04-22T05:11:21.253Z,99374.66
2023-04-22T05:13:50.268Z,99375.29
2023-04-22T05:16:22.798Z,99377.02
2023-04-22T05:18:51.054Z,99378.23
2023-04-22T05:21:20.385Z,99379.48
2023-04-22T05:23:48.789Z,99376.60
2023-04-22T05:26:16.806Z,99379.58
2023-04-22T05:28:44.949Z,99378.05
2023-04-22T05:31:12.778Z,99379.27
2023-04-22T05:33:40.634Z,99382.92
2023-04-22T05:36:08.552Z,99383.08
2023-04-22T05:38:36.704Z,99381.66
2023-04-22T05:41:04.475Z,99382.36
2023-04-22T05:43:32.673Z,99386.98
2023-04-22T05:46:15.326Z,99391.97
2023-04-22T05:48:43.996Z,99394.77
2023-04-22T05:51:24.247Z,99394.00
2023-04-22T05:53:52.069Z,99396.03
2023-04-22T05:56:21.094Z,99394.14
2023-04-22T05:58:48.850Z,99396.73
2023-04-22T06:01:19.606Z,99400.23
2023-04-22T06:03:52.552Z,99399.82
2023-04-22T06:06:20.927Z,99400.92
2023-04-22T06:08:48.867Z,99398.83
2023-04-22T06:11:16.652Z,99398.06
2023-04-22T06:13:44.663Z,99402.62
2023-04-22T06:16:12.879Z,99404.08
2023-04-22T06:18:40.763Z,99404.33
2023-04-22T06:21:11.839Z,99403.11
2023-04-22T06:23:39.742Z,99404.05
2023-04-22T06:26:07.640Z,99405.80
2023-04-22T06:28:36.441Z,99406.35
2023-04-22T06:31:08.206Z,99404.63
2023-04-22T06:33:37.079Z,99409.67
2023-04-22T06:36:05.767Z,99408.23
2023-04-22T06:38:33.786Z,99412.64
2023-04-22T06:41:21.576Z,99412.44
2023-04-22T06:43:50.228Z,99413.46
2023-04-22T06:46:54.657Z,99413.17
2023-04-22T06:49:46.386Z,99415.27
2023-04-22T06:52:38.459Z,99419.42
2023-04-22T06:55:06.690Z,99423.06
2023-04-22T06:57:34.563Z,99421.75
2023-04-22T07:00:04.380Z,99421.50
2023-04-22T07:02:32.762Z,99422.87
2023-04-22T07:05:00.946Z,99427.43
2023-04-22T07:07:29.112Z,99425.36
2023-04-22T07:09:57.013Z,99421.04
2023-04-22T07:12:28.026Z,99424.35
2023-04-22T07:14:56.294Z,99422.15
2023-04-22T07:17:24.090Z,99423.15
2023-04-22T07:19:51.946Z,99420.34
2023-04-22T07:22:19.707Z,99426.38
2023-04-22T07:24:47.603Z,99430.66
2023-04-22T07:27:15.928Z,99432.98
2023-04-22T07:29:43.824Z,99433.75
2023-04-22T07:32:11.883Z,99434.05
2023-04-22T07:34:39.747Z,99432.46
2023-04-22T07:37:09.459Z,99433.44
2023-04-22T07:39:37.555Z,99438.52
2023-04-22T07:42:07.515Z,99443.24
2023-04-22T07:44:37.573Z,99443.67
2023-04-22T07:47:08.614Z,99447.49
2023-04-22T07:49:36.770Z,99449.23
2023-04-22T07:52:04.863Z,99447.75
2023-04-22T07:54:32.713Z,99450.30
2023-04-22T07:57:01.733Z,99450.35
2023-04-22T07:59:30.033Z,99451.58
2023-04-22T08:01:57.977Z,99455.53
2023-04-22T08:04:25.991Z,99453.95
2023-04-22T08:06:55.100Z,99452.92
2023-04-22T08:09:23.342Z,99454.64
2023-04-22T08:11:52.148Z,99458.13
2023-04-22T08:14:19.952Z,99454.51
2023-04-22T08:16:47.759Z,99450.73
2023-04-22T08:19:15.638Z,99451.38
2023-04-22T08:21:43.346Z,99450.42
2023-04-22T08:24:11.104Z,99447.85
2023-04-22T08:26:40.004Z,99449.66
2023-04-22T08:29:07.820Z,99447.94
2023-04-22T08:31:36.092Z,99447.87
2023-04-22T08:34:04.071Z,99450.64
2023-04-22T08:36:32.087Z,99450.78
2023-04-22T08:38:59.822Z,99450.55
2023-04-22T08:41:27.757Z,99455.29
2023-04-22T08:43:55.752Z,99455.42
2023-04-22T08:46:26.890Z,99458.16
2023-04-22T08:48:54.789Z,99450.38
2023-04-22T08:51:22.777Z,99449.77
2023-04-22T08:53:50.694Z,99452.04
2023-04-22T08:56:18.606Z,99451.58
2023-04-22T08:58:46.628Z,99452.18
2023-04-22T09:01:14.453Z,99452.70
2023-04-22T09:03:42.415Z,99456.21
2023-04-22T09:06:10.881Z,99457.81
2023-04-22T09:08:38.646Z,99456.73
2023-04-22T09:11:06.411Z,99456.98
2023-04-22T09:13:34.751Z,99462.88
2023-04-22T09:16:02.550Z,99454.05
2023-04-22T09:18:30.515Z,99455.12
2023-04-22T09:20:58.260Z,99450.17
2023-04-22T09:23:26.074Z,99449.64
2023-04-22T09:25:53.828Z,99453.73
2023-04-22T09:28:21.767Z,99453.13
2023-04-22T09:30:49.702Z,99449.84
2023-04-22T09:33:17.739Z,99446.34
2023-04-22T09:35:45.650Z,99449.14
2023-04-22T09:38:13.609Z,99447.80
2023-04-22T09:40:42.402Z,99445.47
2023-04-22T09:43:10.749Z,99442.63
2023-04-22T09:45:40.031Z,99447.02
2023-04-22T09:48:08.730Z,99444.10
2023-04-22T09:50:40.029Z,99443.00
2023-04-22T09:53:08.732Z,99443.61
2023-04-22T09:55:40.559Z,99439.98
2023-04-22T09:58:12.236Z,99447.15
2023-04-22T10:01:00.302Z,99443.30
2023-04-22T10:03:28.146Z,99442.96
2023-04-22T10:05:55.914Z,99442.67
2023-04-22T10:08:23.713Z,99441.25
2023-04-22T10:10:51.538Z,99444.06
2023-04-22T10:13:20.920Z,99450.63
2023-04-22T10:15:49.472Z,99450.71
2023-04-22T10:18:18.995Z,99449.21
2023-04-22T10:20:46.959Z,99444.66
2023-04-22T10:23:16.109Z,99445.80
2023-04-22T10:25:45.015Z,99447.72
2023-04-22T10:28:14.477Z,99445.19
2023-04-22T10:30:42.296Z,99450.77
2023-04-22T10:33:23.910Z,99451.35
2023-04-22T10:36:10.752Z,99447.61
2023-04-22T10:38:39.428Z,99447.77
2023-04-22T10:41:07.566Z,99446.92
2023-04-22T10:43:41.922Z,99443.23
2023-04-22T10:46:28.644Z,99443.45
2023-04-22T10:48:56.667Z,99446.13
2023-04-22T10:51:40.878Z,99449.94
2023-04-22T10:54:31.728Z,99451.64
2023-04-22T10:57:14.806Z,99450.67
2023-04-22T10:59:44.550Z,99457.91
2023-04-22T11:02:13.275Z,99453.41
2023-04-22T11:04:41.290Z,99456.22
2023-04-22T11:07:18.321Z,99453.42
2023-04-22T11:09:47.059Z,99453.16
2023-04-22T11:12:33.307Z,99457.15
2023-04-22T11:15:01.426Z,99463.82
2023-04-22T11:17:29.404Z,99465.42
2023-04-22T11:20:00.233Z,99463.63
2023-04-22T11:22:28.120Z,99466.90
2023-04-22T11:24:56.253Z,99471.36
2023-04-22T11:27:27.520Z,99470.48
2023-04-22T11:30:11.857Z,99473.17
2023-04-22T11:32:45.022Z,99472.73
2023-04-22T11:35:13.984Z,99471.30
2023-04-22T11:37:42.984Z,99469.80
2023-04-22T11:42:42.476Z,99468.05
2023-04-22T11:45:10.665Z,99469.13
2023-04-22T11:47:39.060Z,99471.66
2023-04-22T11:50:09.801Z,99472.62
2023-04-22T11:52:56.508Z,99479.66
2023-04-22T11:55:27.563Z,99472.52
2023-04-22T11:57:56.547Z,99470.79
2023-04-22T12:00:25.405Z,99467.59
2023-04-22T12:02:57.326Z,99471.06
2023-04-22T12:05:41.268Z,99474.90
2023-04-22T12:08:12.587Z,99468.73
2023-04-22T12:10:41.716Z,99461.58
2023-04-22T12:13:10.377Z,99461.66
2023-04-22T12:15:44.748Z,99465.50
2023-04-22T12:18:12.917Z,99469.40
2023-04-22T12:20:41.000Z,99468.18
2023-04-22T12:23:12.361Z,99460.62
2023-04-22T12:25:40.481Z,99458.89
2023-04-22T12:28:08.755Z,99455.11
2023-04-22T12:30:36.892Z,99449.46
2023-04-22T12:33:04.657Z,99450.34
2023-04-22T12:35:33.835Z,99453.19
2023-04-22T12:38:01.845Z,99453.91
2023-04-22T12:40:29.854Z,99452.71
2023-04-22T12:42:57.582Z,99452.63
2023-04-22T12:45:25.361Z,99454.46
2023-04-22T12:47:54.098Z,99453.13
2023-04-22T12:50:22.104Z,99453.34
2023-04-22T12:52:49.851Z,99455.39
2023-04-22T12:55:18.167Z,99457.66
2023-04-22T12:57:46.661Z,99461.55
2023-04-22T13:00:14.865Z,99458.04
2023-04-22T13:02:43.706Z,99455.38
2023-04-22T13:05:11.874Z,99455.73
2023-04-22T13:07:40.147Z,99452.40
2023-04-22T13:10:08.842Z,99457.23
2023-04-22T13:12:38.513Z,99459.66
2023-04-22T13:15:06.833Z,99456.17
2023-04-22T13:17:35.736Z,99461.63
2023-04-22T13:20:04.577Z,99459.44
2023-04-22T13:22:33.136Z,99458.61
2023-04-22T13:25:00.919Z,99454.83
2023-04-22T13:27:28.610Z,99455.49
2023-04-22T13:29:57.006Z,99460.02
2023-04-22T13:32:25.003Z,99467.23
2023-04-22T13:34:52.720Z,99468.44
2023-04-22T13:37:21.520Z,99462.28
2023-04-22T13:39:49.608Z,99462.02
2023-04-22T13:42:17.419Z,99463.57
2023-04-22T13:44:45.297Z,99464.35
2023-04-22T13:47:13.098Z,99467.13
2023-04-22T13:49:42.070Z,99468.86
2023-04-22T13:52:10.252Z,99472.40
2023-04-22T13:54:38.277Z,99474.67
2023-04-22T13:57:06.302Z,99471.27
2023-04-22T13:59:35.837Z,99464.65
2023-04-22T14:02:03.817Z,99465.79
2023-04-22T14:04:32.951Z,99468.79
2023-04-22T14:07:01.976Z,99473.79
2023-04-22T14:09:29.838Z,99473.23
2023-04-22T14:11:57.955Z,99477.34
2023-04-22T14:14:25.959Z,99479.86
2023-04-22T14:16:53.808Z,99485.90
2023-04-22T14:19:24.258Z,99485.59
2023-04-22T14:21:52.198Z,99485.95
2023-04-22T14:24:20.155Z,99486.87
2023-04-22T14:26:48.287Z,99485.86
2023-04-22T14:29:16.076Z,99484.56
2023-04-22T14:31:43.887Z,99482.00
2023-04-22T14:34:11.806Z,99488.02
2023-04-22T14:36:39.758Z,99485.50
2023-04-22T14:39:07.581Z,99483.95
2023-04-22T14:41:35.441Z,99484.48
2023-04-22T14:44:03.196Z,99486.67
2023-04-22T14:46:31.053Z,99487.90
2023-04-22T14:48:58.914Z,99487.04
2023-04-22T14:51:29.237Z,99491.98
2023-04-22T14:53:57.720Z,99491.23
2023-04-22T14:56:25.488Z,99493.03
2023-04-22T14:58:53.307Z,99493.30
2023-04-22T15:01:23.008Z,99497.00
2023-04-22T15:03:52.122Z,99499.69
2023-04-22T15:06:20.097Z,99501.91
2023-04-22T15:08:48.225Z,99507.52
2023-04-22T15:11:16.056Z,99509.32
2023-04-22T15:13:44.232Z,99508.25
2023-04-22T15:16:13.497Z,99510.83
2023-04-22T15:18:41.387Z,99509.55
2023-04-22T15:21:10.657Z,99508.56
2023-04-22T15:23:38.549Z,99510.12
2023-04-22T15:26:06.410Z,99508.87
2023-04-22T15:28:34.208Z,99511.63
2023-04-22T15:31:02.102Z,99512.77
2023-04-22T15:33:29.902Z,99512.00
2023-04-22T15:35:57.661Z,99513.26
2023-04-22T15:38:26.020Z,99515.11
2023-04-22T15:40:53.829Z,99514.52
2023-04-22T15:43:21.735Z,99518.70
2023-04-22T15:45:49.577Z,99515.66
2023-04-22T15:48:17.337Z,99518.27
2023-04-22T15:50:45.238Z,99522.33
2023-04-22T15:53:13.648Z,99525.89
2023-04-22T15:55:41.521Z,99523.70
2023-04-22T15:58:09.274Z,99525.67
2023-04-22T16:00:37.990Z,99526.02
2023-04-22T16:03:06.333Z,99527.73
2023-04-22T16:05:34.791Z,99525.34
2023-04-22T16:08:03.608Z,99528.71
2023-04-22T16:10:31.561Z,99527.31
2023-04-22T16:12:59.248Z,99528.03
2023-04-22T16:15:27.139Z,99535.39
2023-04-22T16:17:55.130Z,99532.77
2023-04-22T16:20:23.273Z,99535.52
2023-04-22T16:22:51.160Z,99536.44
2023-04-22T16:25:18.891Z,99535.80
2023-04-22T16:27:46.630Z,99538.65
2023-04-22T16:30:16.112Z,99538.88
2023-04-22T16:32:44.315Z,99541.50
2023-04-22T16:35:12.145Z,99544.38
2023-04-22T16:37:40.012Z,99546.17
2023-04-22T16:40:08.863Z,99549.64
2023-04-22T16:42:36.639Z,99548.48
2023-04-22T16:45:04.789Z,99550.29
2023-04-22T16:47:32.596Z,99552.36
2023-04-22T16:50:00.829Z,99552.70
2023-04-22T16:52:29.403Z,99555.81
2023-04-22T16:54:57.485Z,99556.19
2023-04-22T16:57:25.517Z,99559.27
2023-04-22T16:59:53.481Z,99562.86
2023-04-22T17:02:21.405Z,99566.18
2023-04-22T17:04:49.354Z,99565.27
2023-04-22T17:07:17.256Z,99566.89
2023-04-22T17:09:45.531Z,99569.27
2023-04-22T17:12:13.276Z,99569.41
2023-04-22T17:14:41.173Z,99571.95
2023-04-22T17:17:08.908Z,99575.17
2023-04-22T17:19:37.307Z,99574.29
2023-04-22T17:22:05.696Z,99578.41
2023-04-22T17:24:33.816Z,99583.60
2023-04-22T17:27:03.020Z,99587.02
2023-04-22T17:29:31.182Z,99586.20
2023-04-22T17:31:58.924Z,99589.55
2023-04-22T17:34:27.063Z,99594.57
2023-04-22T17:36:54.852Z,99598.62
2023-04-22T17:39:22.919Z,99599.36
2023-04-22T17:41:50.951Z,99604.34
2023-04-22T17:44:18.764Z,99605.46
2023-04-22T17:46:46.848Z,99611.67
2023-04-22T17:49:14.656Z,99618.18
2023-04-22T17:51:43.140Z,99622.36
2023-04-22T17:54:11.108Z,99625.98
2023-04-22T17:56:39.580Z,99623.29
2023-04-22T17:59:07.476Z,99625.52
2023-04-22T18:01:35.649Z,99626.17
2023-04-22T18:04:03.466Z,99627.95
2023-04-22T18:06:32.838Z,99634.25
2023-04-22T18:09:02.446Z,99638.21
2023-04-22T18:11:30.640Z,99640.59
2023-04-22T18:13:58.516Z,99644.02
2023-04-22T18:16:26.435Z,99647.69
2023-04-22T18:18:54.347Z,99650.15
2023-04-22T18:21:22.187Z,99649.38
2023-04-22T18:23:50.185Z,99648.90
2023-04-22T18:26:17.928Z,99653.31
2023-04-22T18:28:45.805Z,99653.09
2023-04-22T18:31:13.737Z,99656.48
2023-04-22T18:33:41.704Z,99656.27
2023-04-22T18:36:09.535Z,99658.98
2023-04-22T18:38:38.803Z,99656.11
2023-04-22T18:41:06.878Z,99655.28
2023-04-22T18:43:34.658Z,99656.52
2023-04-22T18:46:02.684Z,99657.88
2023-04-22T18:48:30.690Z,99659.90
2023-04-22T18:50:58.453Z,99662.56
2023-04-22T18:53:26.506Z,99662.95
2023-04-22T18:55:54.300Z,99666.58
2023-04-22T18:58:23.369Z,99672.73
2023-04-22T19:00:51.497Z,99672.79
2023-04-22T19:03:19.733Z,99672.21
2023-04-22T19:05:47.857Z,99672.55
2023-04-22T19:08:16.262Z,99673.84
2023-04-22T19:10:44.324Z,99672.22
2023-04-22T19:13:22.453Z,99674.13
2023-04-22T19:15:57.402Z,99674.54
2023-04-22T19:18:25.690Z,99668.59
2023-04-22T19:20:53.556Z,99671.77
2023-04-22T19:23:21.800Z,99676.23
2023-04-22T19:25:49.779Z,99677.45
2023-04-22T19:28:17.875Z,99681.38
2023-04-22T19:30:46.225Z,99682.77
2023-04-22T19:33:14.385Z,99687.01
2023-04-22T19:35:42.284Z,99688.30
2023-04-22T19:38:11.289Z,99686.70
2023-04-22T19:40:39.268Z,99685.56
2023-04-22T19:43:07.149Z,99689.85
2023-04-22T19:45:35.129Z,99691.90
2023-04-22T19:48:04.027Z,99694.00
2023-04-22T19:50:34.475Z,99694.28
2023-04-22T19:53:05.260Z,99695.48
2023-04-22T19:55:33.260Z,99696.35
2023-04-22T19:58:01.130Z,99695.69
2023-04-22T20:00:31.060Z,99696.70
2023-04-22T20:02:59.088Z,99700.92
2023-04-22T20:05:27.419Z,99700.86
2023-04-22T20:07:58.017Z,99695.77
2023-04-22T20:10:26.565Z,99698.55
2023-04-22T20:12:54.616Z,99698.91
2023-04-22T20:15:22.673Z,99699.16
2023-04-22T20:17:51.650Z,99703.13
2023-04-22T20:20:19.544Z,99704.13
2023-04-22T20:22:47.775Z,99702.64
2023-04-22T20:25:17.178Z,99703.52
2023-04-22T20:27:45.260Z,99702.85
2023-04-22T20:30:14.360Z,99705.08
2023-04-22T20:32:42.753Z,99702.50
2023-04-22T20:35:15.156Z,99701.88
2023-04-22T20:37:43.871Z,99700.39
2023-04-22T20:40:11.878Z,99700.04
2023-04-22T20:42:40.222Z,99703.09
2023-04-22T20:45:09.671Z,99704.63
2023-04-22T20:47:38.025Z,99707.98
2023-04-22T20:50:06.671Z,99713.20
2023-04-22T20:52:34.818Z,99711.46
2023-04-22T20:55:03.589Z,99713.33
2023-04-22T20:57:31.668Z,99712.88
2023-04-22T20:59:59.382Z,99710.36
2023-04-22T21:02:27.467Z,99707.91
2023-04-22T21:04:55.485Z,99708.64
2023-04-22T21:07:24.610Z,99708.46
2023-04-22T21:09:52.626Z,99715.11
2023-04-22T21:12:21.026Z,99714.65
2023-04-22T21:14:49.267Z,99713.80
2023-04-22T21:17:19.561Z,99714.52
2023-04-22T21:19:48.643Z,99713.09
2023-04-22T21:22:21.347Z,99712.11
2023-04-22T21:24:49.738Z,99717.16
2023-04-22T21:27:19.140Z,99719.59
2023-04-22T21:29:47.749Z,99724.22
2023-04-22T21:32:15.722Z,99724.40
2023-04-22T21:34:44.409Z,99726.31
2023-04-22T21:37:12.793Z,99724.02
2023-04-22T21:39:40.924Z,99724.48
2023-04-22T21:42:09.133Z,99722.23
2023-04-22T21:44:38.070Z,99719.56
2023-04-22T21:47:06.808Z,99719.36
2023-04-22T21:49:34.746Z,99721.70
2023-04-22T21:52:02.568Z,99721.42
2023-04-22T21:54:30.895Z,99722.59
2023-04-22T21:56:59.989Z,99723.84
2023-04-22T21:59:27.822Z,99725.45
2023-04-22T22:01:55.669Z,99724.75
2023-04-22T22:04:23.684Z,99727.02
2023-04-22T22:06:51.818Z,99724.28
2023-04-22T22:09:19.671Z,99724.16
2023-04-22T22:11:47.658Z,99724.48
2023-04-22T22:14:15.526Z,99728.28
2023-04-22T22:16:43.917Z,99726.65
2023-04-22T22:19:12.336Z,99729.26
2023-04-22T22:21:40.512Z,99729.80
2023-04-22T22:24:09.553Z,99731.48
2023-04-22T22:26:40.867Z,99728.51
2023-04-22T22:29:15.246Z,99729.58
2023-04-22T22:31:43.512Z,99727.35
2023-04-22T22:34:11.642Z,99726.72
2023-04-22T22:36:39.440Z,99725.09
2023-04-22T22:39:09.816Z,99727.68
2023-04-22T22:41:37.600Z,99722.63
2023-04-22T22:44:05.419Z,99723.70
2023-04-22T22:46:33.366Z,99723.37
2023-04-22T22:49:01.194Z,99724.96
2023-04-22T22:51:29.971Z,99726.78
2023-04-22T22:53:57.762Z,99726.94
2023-04-22T22:56:25.836Z,99727.26
2023-04-22T22:58:53.606Z,99728.83
2023-04-22T23:01:21.927Z,99726.86
2023-04-22T23:03:50.164Z,99728.47
2023-04-22T23:06:18.494Z,99731.37
2023-04-22T23:08:46.367Z,99731.10
2023-04-22T23:11:14.186Z,99730.60
2023-04-22T23:13:42.074Z,99732.42
2023-04-22T23:16:10.045Z,99735.18
2023-04-22T23:18:37.967Z,99737.73
2023-04-22T23:21:06.158Z,99737.21
2023-04-22T23:23:34.045Z,99738.33
2023-04-22T23:26:02.130Z,99740.89
2023-04-22T23:28:30.273Z,99736.50
2023-04-22T23:30:58.666Z,99737.84
2023-04-22T23:33:26.621Z,99739.85
2023-04-22T23:35:56.668Z,99739.22
2023-04-22T23:38:24.552Z,99737.93
2023-04-22T23:40:52.421Z,99737.16
2023-04-22T23:43:20.363Z,99738.73
2023-04-22T23:45:48.214Z,99736.17
2023-04-22T23:48:16.365Z,99740.36
2023-04-22T23:50:44.207Z,99740.46
2023-04-22T23:53:11.962Z,99738.39
2023-04-22T23:55:40.310Z,99737.67
2023-04-22T23:58:08.276Z,99738.31
